createdAt,value
2023-03-24T00:01:19.662Z,59.89
2023-03-24T00:03:49.256Z,59.79
2023-03-24T00:06:18.851Z,59.64
2023-03-24T00:08:48.155Z,59.49
2023-03-24T00:11:21.423Z,59.41
2023-03-24T00:13:50.533Z,59.38
2023-03-24T00:16:20.112Z,59.23
2023-03-24T00:18:53.481Z,59.36
2023-03-24T00:21:25.146Z,59.22
2023-03-24T00:23:55.571Z,59.08
2023-03-24T00:26:25.855Z,59.09
2023-03-24T00:28:55.642Z,58.97
2023-03-24T00:31:24.579Z,59.28
2023-03-24T00:33:53.988Z,60.51
2023-03-24T00:36:24.299Z,61.11
2023-03-24T00:38:52.927Z,60.89
2023-03-24T00:41:21.431Z,61.11
2023-03-24T00:43:51.596Z,60.93
2023-03-24T00:46:28.476Z,60.88
2023-03-24T00:49:02.231Z,60.81
2023-03-24T00:51:32.381Z,61.39
2023-03-24T00:54:01.868Z,61.84
2023-03-24T00:56:34.001Z,61.91
2023-03-24T00:59:03.810Z,61.69
2023-03-24T01:01:36.635Z,61.54
2023-03-24T01:04:06.921Z,60.86
2023-03-24T01:06:37.572Z,60.63
2023-03-24T01:09:07.204Z,60.40
2023-03-24T01:11:40.225Z,60.39
2023-03-24T01:14:11.224Z,60.16
2023-03-24T01:16:39.600Z,60.40
2023-03-24T01:19:09.250Z,60.38
2023-03-24T01:21:38.527Z,60.55
2023-03-24T01:24:07.769Z,60.64
2023-03-24T01:26:36.071Z,60.65
2023-03-24T01:29:04.209Z,60.32
2023-03-24T01:31:33.793Z,60.67
2023-03-24T01:34:02.135Z,60.42
2023-03-24T01:36:30.316Z,60.56
2023-03-24T01:38:58.541Z,60.46
2023-03-24T01:41:28.792Z,60.35
2023-03-24T01:43:56.836Z,60.58
2023-03-24T01:46:26.534Z,60.65
2023-03-24T01:49:01.269Z,60.99
2023-03-24T01:51:34.816Z,60.58
2023-03-24T01:54:05.994Z,60.48
2023-03-24T01:56:38.120Z,60.36
2023-03-24T01:59:11.318Z,60.41
2023-03-24T02:02:02.715Z,60.54
2023-03-24T02:04:54.199Z,60.27
2023-03-24T02:07:33.706Z,60.20
2023-03-24T02:10:04.503Z,59.89
2023-03-24T02:12:33.959Z,60.25
2023-03-24T02:15:05.946Z,60.27
2023-03-24T02:17:51.782Z,60.29
2023-03-24T02:20:51.327Z,59.88
2023-03-24T02:23:56.665Z,59.92
2023-03-24T02:26:47.223Z,60.22
2023-03-24T02:29:45.377Z,60.50
2023-03-24T02:32:48.604Z,60.34
2023-03-24T02:35:45.273Z,59.95
2023-03-24T02:38:31.051Z,60.17
2023-03-24T02:41:07.070Z,60.00
2023-03-24T02:43:46.749Z,59.73
2023-03-24T02:46:24.499Z,59.60
2023-03-24T02:49:07.172Z,59.70
2023-03-24T02:51:41.025Z,59.83
2023-03-24T02:54:13.550Z,59.91
2023-03-24T02:56:48.202Z,59.64
2023-03-24T02:59:38.371Z,59.94
2023-03-24T03:02:23.098Z,60.07
2023-03-24T03:05:06.086Z,59.98
2023-03-24T03:07:37.480Z,59.89
2023-03-24T03:10:14.089Z,59.69
2023-03-24T03:12:49.327Z,60.13
2023-03-24T03:15:24.168Z,60.15
2023-03-24T03:17:58.979Z,60.11
2023-03-24T03:20:34.820Z,60.39
2023-03-24T03:23:08.529Z,60.03
2023-03-24T03:25:42.321Z,60.37
2023-03-24T03:28:17.888Z,60.65
2023-03-24T03:30:51.789Z,60.17
2023-03-24T03:33:25.117Z,60.48
2023-03-24T03:35:59.284Z,60.75
2023-03-24T03:38:34.228Z,60.45
2023-03-24T03:41:05.703Z,60.62
2023-03-24T03:43:38.844Z,60.73
2023-03-24T03:46:08.813Z,60.65
2023-03-24T03:48:40.377Z,60.64
2023-03-24T03:51:14.333Z,61.13
2023-03-24T03:53:53.356Z,61.12
2023-03-24T03:56:24.840Z,61.31
2023-03-24T03:59:06.589Z,61.01
2023-03-24T04:01:37.606Z,61.14
2023-03-24T04:05:03.271Z,61.55
2023-03-24T04:08:03.538Z,61.38
2023-03-24T04:11:19.261Z,62.13
2023-03-24T04:14:29.747Z,62.78
2023-03-24T04:17:47.072Z,62.94
2023-03-24T04:20:32.614Z,62.08
2023-03-24T04:23:09.475Z,62.08
2023-03-24T04:25:56.662Z,61.40
2023-03-24T04:28:31.832Z,61.09
2023-03-24T04:31:07.406Z,61.41
2023-03-24T04:33:43.115Z,61.19
2023-03-24T04:36:19.142Z,61.52
2023-03-24T04:39:17.111Z,61.68
2023-03-24T04:41:52.731Z,62.54
2023-03-24T04:44:28.081Z,62.29
2023-03-24T04:47:17.931Z,62.75
2023-03-24T04:50:02.714Z,61.97
2023-03-24T04:52:31.312Z,61.84
2023-03-24T04:55:03.058Z,61.86
2023-03-24T04:57:32.161Z,61.96
2023-03-24T05:00:09.013Z,62.04
2023-03-24T05:02:38.425Z,62.07
2023-03-24T05:05:12.765Z,61.66
2023-03-24T05:07:45.089Z,61.39
2023-03-24T05:10:16.687Z,61.67
2023-03-24T05:12:50.746Z,61.80
2023-03-24T05:15:19.178Z,62.36
2023-03-24T05:17:53.092Z,62.26
2023-03-24T05:20:25.506Z,62.07
2023-03-24T05:22:53.571Z,61.57
2023-03-24T05:25:21.696Z,61.64
2023-03-24T05:27:50.935Z,61.55
2023-03-24T05:30:26.937Z,61.62
2023-03-24T05:33:03.435Z,61.23
2023-03-24T05:35:31.682Z,61.15
2023-03-24T05:37:59.721Z,61.25
2023-03-24T05:40:27.884Z,60.99
2023-03-24T05:43:16.393Z,60.88
2023-03-24T05:45:51.653Z,61.16
2023-03-24T05:48:30.562Z,61.00
2023-03-24T05:51:16.943Z,61.14
2023-03-24T05:53:46.820Z,61.01
2023-03-24T05:56:25.615Z,61.25
2023-03-24T05:59:14.062Z,61.38
2023-03-24T06:02:05.290Z,61.75
2023-03-24T06:04:57.558Z,61.46
2023-03-24T06:07:26.665Z,61.56
2023-03-24T06:09:58.197Z,61.20
2023-03-24T06:12:27.530Z,61.07
2023-03-24T06:14:59.171Z,61.02
2023-03-24T06:17:30.564Z,60.61
2023-03-24T06:20:06.110Z,60.69
2023-03-24T06:22:45.335Z,60.53
2023-03-24T06:25:20.390Z,60.34
2023-03-24T06:28:06.482Z,60.03
2023-03-24T06:30:37.015Z,60.09
2023-03-24T06:33:08.332Z,59.98
2023-03-24T06:35:38.509Z,59.88
2023-03-24T06:38:11.761Z,59.99
2023-03-24T06:40:41.112Z,59.76
2023-03-24T06:43:09.648Z,59.92
2023-03-24T06:45:40.617Z,59.83
2023-03-24T06:48:13.173Z,59.65
2023-03-24T06:50:42.900Z,59.30
2023-03-24T06:53:12.369Z,59.11
2023-03-24T06:55:40.826Z,58.95
2023-03-24T06:58:10.377Z,59.33
2023-03-24T07:00:57.446Z,59.10
2023-03-24T07:03:34.462Z,59.16
2023-03-24T07:06:30.730Z,59.39
2023-03-24T07:09:06.476Z,59.18
2023-03-24T07:11:34.482Z,58.71
2023-03-24T07:14:04.169Z,58.85
2023-03-24T07:16:34.264Z,58.67
2023-03-24T07:19:23.172Z,58.41
2023-03-24T07:22:09.794Z,58.30
2023-03-24T07:24:58.185Z,58.38
2023-03-24T07:27:59.727Z,58.15
2023-03-24T07:30:39.432Z,58.50
2023-03-24T07:33:10.880Z,58.66
2023-03-24T07:35:39.331Z,58.81
2023-03-24T07:38:10.131Z,58.92
2023-03-24T07:40:38.332Z,59.28
2023-03-24T07:43:06.989Z,59.10
2023-03-24T07:45:35.022Z,58.89
2023-03-24T07:48:03.544Z,59.29
2023-03-24T07:50:36.183Z,59.62
2023-03-24T07:53:12.088Z,59.51
2023-03-24T07:55:40.317Z,59.63
2023-03-24T07:58:14.288Z,59.58
2023-03-24T08:00:54.200Z,59.53
2023-03-24T08:03:29.741Z,59.30
2023-03-24T08:06:24.049Z,59.42
2023-03-24T08:08:54.451Z,59.29
2023-03-24T08:11:22.432Z,59.27
2023-03-24T08:13:50.300Z,59.20
2023-03-24T08:16:18.183Z,58.63
2023-03-24T08:18:46.319Z,58.24
2023-03-24T08:21:14.284Z,57.85
2023-03-24T08:23:42.121Z,56.99
2023-03-24T08:26:11.683Z,56.88
2023-03-24T08:28:39.683Z,56.87
2023-03-24T08:31:07.795Z,55.23
2023-03-24T08:33:36.526Z,54.71
2023-03-24T08:36:04.946Z,54.66
2023-03-24T08:38:32.887Z,54.50
2023-03-24T08:41:06.883Z,54.23
2023-03-24T08:43:37.646Z,54.03
2023-03-24T08:46:08.872Z,53.67
2023-03-24T08:48:40.612Z,53.40
2023-03-24T08:51:13.152Z,52.66
2023-03-24T08:53:41.356Z,51.84
2023-03-24T08:56:10.444Z,51.33
2023-03-24T08:58:39.716Z,51.33
2023-03-24T09:01:07.755Z,51.01
2023-03-24T09:03:35.977Z,50.07
2023-03-24T09:06:03.903Z,49.71
2023-03-24T09:08:31.861Z,49.06
2023-03-24T09:11:00.140Z,48.52
2023-03-24T09:13:28.141Z,48.53
2023-03-24T09:16:01.515Z,48.32
2023-03-24T09:18:30.361Z,48.27
2023-03-24T09:20:58.315Z,48.00
2023-03-24T09:23:29.114Z,47.83
2023-03-24T09:25:57.049Z,47.36
2023-03-24T09:28:25.355Z,46.21
2023-03-24T09:30:59.478Z,44.70
2023-03-24T09:33:29.562Z,44.00
2023-03-24T09:35:59.739Z,43.83
2023-03-24T09:38:28.923Z,43.60
2023-03-24T09:41:00.844Z,43.56
2023-03-24T09:43:34.617Z,43.63
2023-03-24T09:46:07.759Z,43.96
2023-03-24T09:48:41.314Z,44.42
2023-03-24T09:51:13.139Z,44.25
2023-03-24T09:53:47.603Z,43.74
2023-03-24T09:56:19.032Z,43.75
2023-03-24T09:58:51.169Z,43.32
2023-03-24T10:01:21.176Z,43.37
2023-03-24T10:03:49.151Z,43.87
2023-03-24T10:06:23.131Z,44.44
2023-03-24T10:08:58.886Z,44.75
2023-03-24T10:11:33.114Z,45.28
2023-03-24T10:14:15.076Z,45.63
2023-03-24T10:16:50.981Z,45.23
2023-03-24T10:19:30.860Z,44.71
2023-03-24T10:22:05.233Z,43.91
2023-03-24T10:24:42.264Z,43.41
2023-03-24T10:27:18.323Z,42.78
2023-03-24T10:29:48.674Z,42.84
2023-03-24T10:32:22.127Z,43.25
2023-03-24T10:34:55.835Z,43.21
2023-03-24T10:37:23.996Z,42.71
2023-03-24T10:39:52.532Z,42.54
2023-03-24T10:42:26.418Z,42.34
2023-03-24T10:44:54.610Z,42.52
2023-03-24T10:47:27.091Z,42.28
2023-03-24T10:49:58.022Z,42.42
2023-03-24T10:52:26.448Z,42.92
2023-03-24T10:54:56.204Z,43.05
2023-03-24T10:57:25.760Z,43.15
2023-03-24T10:59:57.342Z,42.99
2023-03-24T11:02:30.625Z,42.77
2023-03-24T11:05:02.288Z,42.45
2023-03-24T11:07:33.679Z,41.86
2023-03-24T11:10:07.124Z,41.87
2023-03-24T11:12:38.113Z,41.70
2023-03-24T11:15:22.092Z,41.24
2023-03-24T11:17:57.306Z,40.65
2023-03-24T11:20:33.053Z,40.18
2023-03-24T11:23:03.941Z,39.89
2023-03-24T11:25:34.830Z,39.80
2023-03-24T11:28:06.916Z,39.70
2023-03-24T11:30:36.898Z,39.61
2023-03-24T11:33:07.226Z,39.87
2023-03-24T11:35:41.796Z,40.12
2023-03-24T11:38:18.106Z,40.07
2023-03-24T11:40:58.256Z,40.06
2023-03-24T11:43:28.014Z,39.94
2023-03-24T11:46:02.365Z,40.03
2023-03-24T11:48:40.478Z,40.13
2023-03-24T11:51:12.550Z,40.03
2023-03-24T11:53:45.582Z,39.99
2023-03-24T11:56:22.192Z,39.94
2023-03-24T11:58:57.470Z,40.19
2023-03-24T12:01:31.265Z,40.15
2023-03-24T12:04:15.476Z,40.08
2023-03-24T12:06:55.594Z,40.03
2023-03-24T12:09:32.566Z,40.16
2023-03-24T12:12:32.014Z,40.41
2023-03-24T12:15:27.842Z,40.31
2023-03-24T12:18:08.797Z,40.44
2023-03-24T12:20:47.047Z,40.59
2023-03-24T12:23:21.342Z,40.41
2023-03-24T12:26:10.371Z,40.32
2023-03-24T12:28:53.693Z,40.66
2023-03-24T12:31:45.045Z,40.69
2023-03-24T12:34:35.443Z,40.91
2023-03-24T12:37:11.158Z,40.71
2023-03-24T12:39:49.058Z,40.86
2023-03-24T12:42:18.889Z,40.85
2023-03-24T12:45:13.480Z,40.97
2023-03-24T12:47:58.037Z,41.05
2023-03-24T12:50:37.542Z,41.02
2023-03-24T12:53:18.161Z,41.13
2023-03-24T12:55:52.444Z,41.14
2023-03-24T12:58:27.314Z,41.11
2023-03-24T13:01:04.609Z,41.65
2023-03-24T13:03:41.542Z,41.44
2023-03-24T13:06:17.747Z,41.43
2023-03-24T13:09:00.754Z,41.49
2023-03-24T13:11:35.871Z,41.57
2023-03-24T13:14:10.335Z,41.65
2023-03-24T13:16:41.082Z,41.26
2023-03-24T13:19:19.561Z,40.93
2023-03-24T13:21:48.871Z,40.85
2023-03-24T13:24:20.114Z,40.55
2023-03-24T13:26:56.154Z,40.41
2023-03-24T13:29:49.678Z,40.15
2023-03-24T13:32:30.152Z,40.08
2023-03-24T13:35:05.974Z,40.08
2023-03-24T13:37:37.473Z,40.02
2023-03-24T13:40:12.176Z,40.19
2023-03-24T13:42:46.345Z,40.47
2023-03-24T13:45:33.040Z,40.42
2023-03-24T13:48:07.854Z,40.23
2023-03-24T13:50:39.497Z,40.47
2023-03-24T13:53:14.939Z,40.52
2023-03-24T13:55:51.117Z,40.83
2023-03-24T13:58:22.039Z,40.73
2023-03-24T14:01:07.289Z,40.66
2023-03-24T14:03:37.623Z,40.71
2023-03-24T14:06:09.177Z,41.17
2023-03-24T14:08:55.995Z,41.08
2023-03-24T14:11:49.401Z,41.31
2023-03-24T14:14:23.221Z,41.59
2023-03-24T14:16:53.958Z,41.55
2023-03-24T14:19:27.516Z,41.57
2023-03-24T14:22:04.511Z,41.69
2023-03-24T14:24:32.931Z,41.66
2023-03-24T14:27:02.239Z,41.36
2023-03-24T14:29:50.676Z,40.99
2023-03-24T14:32:22.981Z,41.03
2023-03-24T14:34:54.052Z,41.01
2023-03-24T14:37:22.971Z,41.15
2023-03-24T14:39:52.132Z,41.59
2023-03-24T14:42:58.414Z,41.58
2023-03-24T14:45:41.251Z,41.83
2023-03-24T14:48:28.409Z,41.84
2023-03-24T14:51:02.014Z,41.96
2023-03-24T14:53:30.480Z,42.15
2023-03-24T14:55:59.224Z,42.55
2023-03-24T14:58:35.818Z,42.98
2023-03-24T15:01:07.888Z,43.14
2023-03-24T15:03:45.957Z,43.75
2023-03-24T15:06:15.989Z,44.09
2023-03-24T15:08:51.277Z,44.46
2023-03-24T15:11:23.046Z,44.67
2023-03-24T15:13:54.479Z,44.84
2023-03-24T15:16:25.157Z,45.01
2023-03-24T15:21:30.190Z,45.09
2023-03-24T15:24:01.037Z,45.27
2023-03-24T15:26:30.330Z,45.64
2023-03-24T15:29:02.027Z,45.66
2023-03-24T15:31:31.162Z,45.96
2023-03-24T15:34:07.638Z,46.15
2023-03-24T15:36:40.844Z,46.45
2023-03-24T15:39:20.811Z,46.37
2023-03-24T15:41:53.731Z,46.67
2023-03-24T15:44:27.444Z,46.73
2023-03-24T15:46:57.295Z,46.72
2023-03-24T15:49:27.913Z,46.72
2023-03-24T15:51:59.982Z,46.83
2023-03-24T15:54:30.774Z,46.93
2023-03-24T15:57:21.076Z,47.12
2023-03-24T15:59:52.310Z,47.24
2023-03-24T16:02:31.420Z,47.40
2023-03-24T16:05:11.011Z,47.67
2023-03-24T16:07:42.423Z,47.72
2023-03-24T16:10:32.404Z,47.66
2023-03-24T16:13:14.590Z,47.83
2023-03-24T16:15:46.064Z,47.98
2023-03-24T16:18:18.168Z,48.04
2023-03-24T16:20:46.256Z,48.07
2023-03-24T16:23:14.409Z,48.13
2023-03-24T16:25:42.329Z,48.42
2023-03-24T16:28:13.214Z,48.59
2023-03-24T16:30:44.623Z,48.87
2023-03-24T16:33:13.579Z,48.80
2023-03-24T16:35:41.535Z,49.42
2023-03-24T16:38:13.608Z,49.58
2023-03-24T16:40:44.767Z,49.52
2023-03-24T16:43:12.817Z,49.90
2023-03-24T16:45:40.705Z,50.12
2023-03-24T16:48:11.210Z,50.06
2023-03-24T16:50:41.042Z,50.17
2023-03-24T16:53:09.761Z,50.28
2023-03-24T16:55:38.629Z,50.91
2023-03-24T16:58:07.161Z,51.10
2023-03-24T17:00:38.278Z,51.07
2023-03-24T17:03:08.067Z,51.22
2023-03-24T17:05:41.742Z,51.54
2023-03-24T17:08:10.504Z,51.66
2023-03-24T17:10:38.723Z,51.85
2023-03-24T17:13:06.880Z,51.89
2023-03-24T17:15:34.710Z,52.42
2023-03-24T17:18:03.868Z,52.38
2023-03-24T17:20:31.960Z,52.33
2023-03-24T17:23:04.104Z,52.34
2023-03-24T17:25:32.236Z,52.21
2023-03-24T17:28:00.248Z,52.00
2023-03-24T17:30:30.202Z,51.84
2023-03-24T17:32:58.233Z,52.03
2023-03-24T17:35:26.562Z,51.96
2023-03-24T17:37:54.608Z,51.71
2023-03-24T17:40:23.808Z,51.71
2023-03-24T17:42:51.702Z,51.58
2023-03-24T17:45:20.583Z,51.90
2023-03-24T17:47:48.569Z,52.28
2023-03-24T17:50:16.719Z,52.33
2023-03-24T17:52:46.447Z,52.51
2023-03-24T17:55:16.115Z,52.84
2023-03-24T17:57:46.049Z,52.85
2023-03-24T18:00:16.474Z,53.44
2023-03-24T18:02:45.271Z,53.52
2023-03-24T18:05:15.800Z,53.59
2023-03-24T18:07:43.804Z,54.29
2023-03-24T18:10:11.778Z,54.33
2023-03-24T18:12:39.709Z,54.89
2023-03-24T18:15:10.481Z,55.78
2023-03-24T18:17:38.484Z,56.54
2023-03-24T18:20:10.792Z,58.16
2023-03-24T18:22:40.973Z,59.39
2023-03-24T18:25:10.816Z,60.13
2023-03-24T18:27:39.495Z,60.33
2023-03-24T18:30:11.467Z,60.76
2023-03-24T18:32:39.864Z,61.23
2023-03-24T18:35:10.174Z,61.22
2023-03-24T18:37:38.805Z,60.90
2023-03-24T18:40:08.998Z,61.58
2023-03-24T18:42:37.020Z,61.92
2023-03-24T18:45:06.001Z,62.17
2023-03-24T18:47:35.860Z,62.20
2023-03-24T18:50:04.551Z,62.44
2023-03-24T18:52:33.071Z,62.93
2023-03-24T18:55:02.396Z,62.67
2023-03-24T18:57:31.063Z,62.26
2023-03-24T19:00:00.294Z,61.93
2023-03-24T19:02:28.535Z,61.91
2023-03-24T19:04:57.897Z,62.32
2023-03-24T19:07:26.251Z,62.51
2023-03-24T19:09:55.324Z,62.22
2023-03-24T19:12:23.254Z,62.30
2023-03-24T19:14:54.066Z,62.70
2023-03-24T19:17:23.616Z,63.13
2023-03-24T19:19:51.729Z,63.33
2023-03-24T19:22:22.154Z,62.94
2023-03-24T19:24:50.676Z,63.06
2023-03-24T19:27:18.958Z,62.79
2023-03-24T19:29:47.495Z,62.85
2023-03-24T19:32:15.511Z,63.55
2023-03-24T19:34:43.392Z,63.59
2023-03-24T19:37:13.850Z,63.40
2023-03-24T19:39:43.087Z,64.02
2023-03-24T19:42:10.950Z,64.65
2023-03-24T19:44:38.835Z,66.31
2023-03-24T19:47:06.679Z,66.82
2023-03-24T19:49:34.545Z,67.64
2023-03-24T19:52:03.638Z,67.24
2023-03-24T19:54:31.576Z,67.30
2023-03-24T19:57:00.913Z,67.18
2023-03-24T19:59:29.002Z,66.78
2023-03-24T20:01:57.002Z,66.93
2023-03-24T20:04:25.941Z,67.70
2023-03-24T20:06:53.900Z,67.92
2023-03-24T20:09:21.742Z,67.83
2023-03-24T20:11:52.395Z,68.06
2023-03-24T20:14:21.670Z,67.96
2023-03-24T20:16:49.729Z,68.94
2023-03-24T20:19:17.743Z,69.00
2023-03-24T20:21:45.842Z,68.96
2023-03-24T20:24:14.710Z,69.61
2023-03-24T20:26:42.806Z,69.99
2023-03-24T20:29:10.709Z,70.05
2023-03-24T20:31:41.806Z,70.67
2023-03-24T20:34:10.830Z,71.22
2023-03-24T20:36:41.307Z,70.92
2023-03-24T20:39:09.632Z,71.54
2023-03-24T20:41:37.612Z,71.23
2023-03-24T20:44:06.038Z,70.86
2023-03-24T20:46:34.294Z,70.91
2023-03-24T20:49:03.963Z,70.82
2023-03-24T20:51:31.844Z,70.83
2023-03-24T20:53:59.716Z,70.67
2023-03-24T20:56:27.789Z,70.64
2023-03-24T20:58:55.637Z,70.45
2023-03-24T21:01:24.591Z,69.88
2023-03-24T21:03:54.593Z,70.36
2023-03-24T21:06:24.340Z,69.86
2023-03-24T21:08:54.307Z,69.76
2023-03-24T21:11:22.659Z,70.04
2023-03-24T21:13:50.728Z,70.40
2023-03-24T21:16:23.379Z,70.83
2023-03-24T21:18:51.340Z,70.84
2023-03-24T21:21:19.197Z,71.51
2023-03-24T21:23:48.431Z,72.37
2023-03-24T21:26:18.092Z,73.73
2023-03-24T21:28:46.678Z,74.79
2023-03-24T21:31:18.883Z,75.16
2023-03-24T21:33:47.101Z,75.55
2023-03-24T21:36:15.825Z,75.60
2023-03-24T21:38:44.340Z,76.09
2023-03-24T21:41:13.635Z,76.03
2023-03-24T21:43:42.153Z,76.30
2023-03-24T21:46:14.818Z,76.72
2023-03-24T21:48:51.295Z,77.05
2023-03-24T21:51:21.253Z,77.17
2023-03-24T21:53:49.156Z,77.27
2023-03-24T21:56:20.206Z,77.30
2023-03-24T21:58:48.231Z,77.25
2023-03-24T22:01:16.728Z,77.42
2023-03-24T22:03:46.414Z,77.33
2023-03-24T22:06:14.970Z,77.61
2023-03-24T22:08:44.207Z,76.94
2023-03-24T22:11:15.236Z,76.89
2023-03-24T22:13:44.539Z,76.55
2023-03-24T22:16:12.440Z,76.36
2023-03-24T22:18:40.380Z,76.11
2023-03-24T22:21:10.497Z,75.23
2023-03-24T22:23:42.454Z,75.22
2023-03-24T22:26:13.315Z,75.00
2023-03-24T22:28:42.107Z,74.96
2023-03-24T22:31:13.721Z,74.55
2023-03-24T22:33:42.042Z,74.28
2023-03-24T22:36:11.207Z,73.85
2023-03-24T22:38:39.222Z,74.01
2023-03-24T22:41:09.827Z,73.81
2023-03-24T22:43:39.356Z,73.63
2023-03-24T22:46:08.005Z,73.65
2023-03-24T22:48:39.342Z,74.79
2023-03-24T22:51:08.713Z,75.84
2023-03-24T22:53:37.037Z,76.62
2023-03-24T22:56:06.304Z,76.77
2023-03-24T22:58:35.610Z,76.32
2023-03-24T23:01:03.841Z,75.79
2023-03-24T23:03:31.897Z,75.77
2023-03-24T23:06:03.043Z,75.79
2023-03-24T23:08:32.307Z,75.20
2023-03-24T23:11:00.972Z,75.18
2023-03-24T23:13:30.835Z,75.26
2023-03-24T23:15:58.877Z,74.93
2023-03-24T23:18:26.834Z,74.94
2023-03-24T23:21:06.924Z,74.72
2023-03-24T23:23:35.022Z,74.38
2023-03-24T23:26:04.792Z,74.28
2023-03-24T23:28:33.141Z,73.99
2023-03-24T23:31:00.991Z,74.53
2023-03-24T23:33:29.358Z,74.33
2023-03-24T23:35:58.826Z,74.23
2023-03-24T23:38:28.369Z,74.27
2023-03-24T23:40:56.309Z,74.00
2023-03-24T23:43:24.201Z,73.78
2023-03-24T23:45:55.592Z,74.18
2023-03-24T23:48:23.524Z,74.10
2023-03-24T23:50:56.693Z,74.12
2023-03-24T23:53:24.796Z,74.08
2023-03-24T23:55:57.021Z,73.70
2023-03-24T23:58:25.469Z,74.04
